Time;durP1;ratioP1;P1;durP2;ratioP2;P2;SDS_P1;SDS_P2;PMS_P1;PMS_P2;Temp;Humidity;BMP_temperature;BMP_pressure;BME280_temperature;BME280_humidity;BME280_pressure;Samples;Min_cycle;Max_cycle;Signal;HPM_P1;HPM_P2
2023/02/07 00:01:15;;;;;;;17.43;8.93;;;;;;;-6.78;100.00;103598.44;5051202;28;20291;-83
2023/02/07 00:03:42;;;;;;;16.00;8.17;;;;;;;-6.84;100.00;103588.44;5019352;28;20067;-82
2023/02/07 00:06:11;;;;;;;16.83;8.60;;;;;;;-6.87;100.00;103594.97;5049444;28;20039;-83
2023/02/07 00:08:38;;;;;;;24.53;10.07;;;;;;;-6.93;100.00;103585.00;5035616;28;20065;-83
2023/02/07 00:11:10;;;;;;;18.53;9.20;;;;;;;-6.95;100.00;103585.63;5018577;28;20362;-83
2023/02/07 00:13:37;;;;;;;14.27;7.43;;;;;;;-6.95;100.00;103573.66;5051011;28;20279;-82
2023/02/07 00:16:07;;;;;;;17.57;8.27;;;;;;;-6.97;100.00;103580.34;5030901;28;20303;-82
2023/02/07 00:18:34;;;;;;;17.07;8.67;;;;;;;-6.93;100.00;103582.44;5025984;28;20299;-83
2023/02/07 00:21:06;;;;;;;17.57;8.40;;;;;;;-7.07;100.00;103577.59;5026664;28;20276;-83
2023/02/07 00:23:35;;;;;;;16.93;8.33;;;;;;;-7.09;100.00;103577.47;5025280;28;20301;-83
2023/02/07 00:26:04;;;;;;;20.03;9.97;;;;;;;-7.02;100.00;103576.41;5018600;28;20315;-83
2023/02/07 00:28:31;;;;;;;18.07;8.57;;;;;;;-6.93;100.00;103577.28;5013316;28;20299;-83
2023/02/07 00:31:19;;;;;;;22.90;9.70;;;;;;;-6.97;100.00;103580.34;5024554;28;20296;-81
2023/02/07 00:33:49;;;;;;;18.47;8.07;;;;;;;-7.04;100.00;103575.34;5008341;28;20295;-82
2023/02/07 00:36:23;;;;;;;17.65;8.27;;;;;;;-7.14;100.00;103575.22;5005709;28;20335;-82
2023/02/07 00:38:50;;;;;;;20.70;8.90;;;;;;;-7.15;100.00;103581.09;4996006;28;20075;-82
2023/02/07 00:41:17;;;;;;;25.23;10.07;;;;;;;-6.99;100.00;103581.81;5028623;28;20046;-82
2023/02/07 00:43:46;;;;;;;15.43;9.00;;;;;;;-6.87;100.00;103593.31;5011139;28;20668;-82
2023/02/07 00:46:13;;;;;;;22.27;9.07;;;;;;;-6.93;100.00;103597.84;5026458;28;20334;-82
2023/02/07 00:48:40;;;;;;;19.13;9.57;;;;;;;-7.23;100.00;103595.78;5015420;28;20302;-83
2023/02/07 00:51:08;;;;;;;19.37;9.27;;;;;;;-7.22;100.00;103596.69;5008278;28;20889;-83
2023/02/07 00:53:38;;;;;;;20.67;9.30;;;;;;;-7.13;100.00;103595.00;5029872;28;20303;-83
2023/02/07 00:56:06;;;;;;;26.27;11.80;;;;;;;-7.15;100.00;103601.63;5047325;28;20310;-83
2023/02/07 00:58:33;;;;;;;29.97;10.00;;;;;;;-7.15;100.00;103591.38;5012807;28;20690;-82
2023/02/07 01:01:00;;;;;;;21.93;10.93;;;;;;;-7.15;100.00;103592.28;5012198;28;20314;-82
2023/02/07 01:03:27;;;;;;;17.93;9.33;;;;;;;-7.06;100.00;103594.88;5009647;28;20292;-83
2023/02/07 01:05:54;;;;;;;27.00;9.37;;;;;;;-7.17;100.00;103585.19;4987230;28;20652;-82
2023/02/07 01:08:20;;;;;;;17.97;9.40;;;;;;;-7.25;100.00;103579.28;5002306;28;20804;-82
2023/02/07 01:10:50;;;;;;;24.60;11.70;;;;;;;-7.18;100.00;103578.22;5007044;28;20326;-82
2023/02/07 01:13:16;;;;;;;20.67;11.17;;;;;;;-7.24;100.00;103582.75;5016467;28;20295;-81
2023/02/07 01:15:46;;;;;;;23.47;9.67;;;;;;;-7.23;100.00;103577.81;5021469;28;20291;-82
2023/02/07 01:18:13;;;;;;;23.30;10.17;;;;;;;-7.28;100.00;103584.13;5004364;28;20394;-80
2023/02/07 01:20:39;;;;;;;28.07;10.13;;;;;;;-7.23;100.00;103584.56;5022345;28;21166;-83
2023/02/07 01:23:06;;;;;;;21.63;10.20;;;;;;;-7.21;100.00;103584.00;5006830;28;20295;-83
2023/02/07 01:25:33;;;;;;;24.17;10.77;;;;;;;-7.17;100.00;103575.81;5006780;28;20294;-82
2023/02/07 01:27:59;;;;;;;21.83;9.87;;;;;;;-7.27;100.00;103573.09;5005963;28;20291;-83
2023/02/07 01:30:26;;;;;;;19.87;9.13;;;;;;;-7.09;100.00;103574.00;5023383;28;20675;-82
2023/02/07 01:32:53;;;;;;;27.33;10.53;;;;;;;-6.97;100.00;103571.72;5038244;28;20292;-83
2023/02/07 01:35:20;;;;;;;27.43;10.73;;;;;;;-7.08;100.00;103560.38;5007715;28;20283;-84
2023/02/07 01:37:46;;;;;;;27.57;11.63;;;;;;;-7.09;100.00;103562.03;5020508;28;20411;-83
2023/02/07 01:40:13;;;;;;;30.23;12.23;;;;;;;-7.06;100.00;103555.38;5023500;28;20780;-82
2023/02/07 01:42:40;;;;;;;24.20;10.83;;;;;;;-7.04;100.00;103565.06;5019512;28;20335;-84
2023/02/07 01:45:31;;;;;;;27.93;11.80;;;;;;;-7.01;100.00;103552.50;5029655;23;20320;-77
2023/02/07 01:48:02;;;;;;;28.97;10.97;;;;;;;-6.97;100.00;103553.72;5006346;28;20304;-77
2023/02/07 01:50:30;;;;;;;23.73;9.83;;;;;;;-6.97;100.00;103554.63;5007586;28;20847;-78
2023/02/07 01:52:57;;;;;;;27.20;11.70;;;;;;;-6.97;100.00;103539.22;5041173;28;20291;-77
2023/02/07 01:55:27;;;;;;;20.40;9.43;;;;;;;-6.94;100.00;103547.22;5020113;28;20288;-78
2023/02/07 01:57:54;;;;;;;25.40;11.07;;;;;;;-6.94;100.00;103551.44;5054546;28;20675;-77
2023/02/07 02:00:22;;;;;;;27.27;12.37;;;;;;;-6.94;100.00;103543.75;5014174;28;20800;-77
2023/02/07 02:02:48;;;;;;;24.23;11.87;;;;;;;-6.97;100.00;103548.59;5003888;28;20683;-78
2023/02/07 02:05:16;;;;;;;29.37;13.40;;;;;;;-7.00;100.00;103551.75;5001067;28;20302;-78
2023/02/07 02:07:42;;;;;;;28.00;11.43;;;;;;;-6.99;100.00;103547.50;5018583;28;20637;-78
2023/02/07 02:10:23;;;;;;;25.60;9.97;;;;;;;-7.00;100.00;103549.19;5000989;28;20303;-77
2023/02/07 02:13:24;;;;;;;25.53;11.23;;;;;;;-6.85;100.00;103549.75;5019316;28;20040;-76
2023/02/07 02:16:22;;;;;;;23.53;10.73;;;;;;;-6.79;100.00;103536.59;5034588;28;20378;-77
2023/02/07 02:19:08;;;;;;;23.47;9.83;;;;;;;-7.07;100.00;103530.44;5034919;28;20367;-77
2023/02/07 02:22:02;;;;;;;21.87;10.87;;;;;;;-7.15;100.00;103530.59;5014407;28;20288;-77
2023/02/07 02:25:10;;;;;;;22.47;10.10;;;;;;;-7.22;100.00;103528.25;5022946;28;20287;-76
2023/02/07 02:27:56;;;;;;;21.67;9.70;;;;;;;-7.21;100.00;103522.34;5022939;28;20330;-76
2023/02/07 02:30:38;;;;;;;28.77;10.50;;;;;;;-7.12;100.00;103522.31;5014722;28;20303;-76
2023/02/07 02:33:12;;;;;;;22.20;10.87;;;;;;;-7.11;100.00;103519.00;5032789;28;20291;-76
2023/02/07 02:35:43;;;;;;;;;;;;;;;-7.19;100.00;103513.09;5033893;28;20290;-77
2023/02/07 02:38:33;;;;;;;23.57;10.50;;;;;;;-7.18;100.00;103511.44;5033998;28;19925;-76
2023/02/07 02:41:27;;;;;;;26.60;10.07;;;;;;;-7.23;100.00;103513.59;5013780;28;20327;-77
2023/02/07 02:44:17;;;;;;;26.13;11.50;;;;;;;-7.19;100.00;103514.78;5022833;28;20309;-76
2023/02/07 02:46:44;;;;;;;25.63;11.50;;;;;;;-7.17;100.00;103503.88;5016395;28;20284;-77
2023/02/07 02:49:13;;;;;;;28.97;12.20;;;;;;;-7.23;100.00;103498.19;5018975;28;20295;-77
2023/02/07 02:51:39;;;;;;;25.07;10.53;;;;;;;-7.23;100.00;103503.31;5017139;28;20373;-77
2023/02/07 02:54:25;;;;;;;24.40;11.00;;;;;;;-7.26;100.00;103497.84;5015906;28;20279;-76
2023/02/07 02:57:26;;;;;;;23.90;10.23;;;;;;;-7.24;100.00;103490.28;5046036;28;20294;-76
2023/02/07 03:00:11;;;;;;;25.80;10.67;;;;;;;-7.13;100.00;103490.59;5012955;28;20295;-77
2023/02/07 03:02:43;;;;;;;21.20;9.53;;;;;;;-7.00;100.00;103491.75;5015438;28;20703;-77
2023/02/07 03:05:42;;;;;;;29.30;10.80;;;;;;;-6.99;100.00;103493.56;5033695;28;20298;-76
2023/02/07 03:08:31;;;;;;;23.17;11.40;;;;;;;-7.09;100.00;103502.94;5033334;28;20291;-77
2023/02/07 03:11:10;;;;;;;25.83;9.80;;;;;;;-7.10;100.00;103508.84;5033196;28;20342;-76
2023/02/07 03:14:05;;;;;;;21.50;10.60;;;;;;;-7.12;100.00;103496.63;5041114;28;20299;-77
2023/02/07 03:16:38;;;;;;;34.40;10.93;;;;;;;-7.15;100.00;103506.59;5031721;28;20326;-76
2023/02/07 03:19:08;;;;;;;22.77;9.47;;;;;;;-7.16;100.00;103508.25;5033338;28;20378;-77
2023/02/07 03:21:38;;;;;;;27.37;10.77;;;;;;;-7.26;100.00;103503.00;5032461;28;20295;-76
2023/02/07 03:24:10;;;;;;;23.57;10.80;;;;;;;-7.37;100.00;103503.63;5033594;28;20287;-77
2023/02/07 03:26:38;;;;;;;23.60;10.77;;;;;;;-7.37;100.00;103509.66;5012713;28;20294;-77
2023/02/07 03:29:05;;;;;;;29.40;11.30;;;;;;;-7.51;100.00;103515.09;5028180;28;20779;-77
2023/02/07 03:31:33;;;;;;;31.70;12.17;;;;;;;-7.41;100.00;103509.19;5012889;28;21026;-77
2023/02/07 03:34:25;;;;;;;25.80;9.87;;;;;;;-7.43;100.00;103506.50;5032148;28;20891;-76
2023/02/07 03:36:55;;;;;;;21.83;10.23;;;;;;;-7.51;100.00;103514.19;5013516;28;20284;-76
2023/02/07 03:39:22;;;;;;;23.27;10.43;;;;;;;-7.58;100.00;103509.22;5008033;28;20291;-76
2023/02/07 03:41:55;;;;;;;24.03;10.23;;;;;;;-7.67;100.00;103511.78;5033353;28;20283;-76
2023/02/07 03:44:23;;;;;;;24.57;11.40;;;;;;;-7.74;100.00;103517.97;5033645;28;20679;-76
2023/02/07 03:46:50;;;;;;;25.10;12.53;;;;;;;-7.69;100.00;103521.00;5000049;28;20291;-76
2023/02/07 03:49:17;;;;;;;26.17;12.07;;;;;;;-7.58;100.00;103522.06;5038972;28;20341;-76
2023/02/07 03:51:44;;;;;;;28.73;11.30;;;;;;;-7.57;100.00;103522.19;5016668;28;20345;-77
2023/02/07 03:54:10;;;;;;;28.37;12.20;;;;;;;-7.61;100.00;103511.50;5032762;28;20344;-77
2023/02/07 03:56:37;;;;;;;29.43;10.23;;;;;;;-7.51;100.00;103514.19;5050234;28;20683;-77
2023/02/07 03:59:04;;;;;;;22.10;10.43;;;;;;;-7.32;100.00;103511.75;5051074;28;20295;-76
2023/02/07 04:01:31;;;;;;;28.70;10.60;;;;;;;-7.17;100.00;103514.16;5032582;28;20287;-77
2023/02/07 04:03:58;;;;;;;28.87;10.40;;;;;;;-7.25;100.00;103520.22;5016588;28;20683;-77
2023/02/07 04:06:25;;;;;;;25.60;12.47;;;;;;;-7.28;100.00;103525.06;5050166;28;20287;-77
2023/02/07 04:08:51;;;;;;;25.27;11.80;;;;;;;-7.39;100.00;103520.56;5033007;28;20787;-76
2023/02/07 04:11:18;;;;;;;20.07;10.87;;;;;;;-7.30;100.00;103528.25;5016820;28;20306;-76
2023/02/07 04:13:44;;;;;;;27.03;10.87;;;;;;;-7.19;100.00;103523.38;5050787;28;20703;-76
2023/02/07 04:16:11;;;;;;;23.40;10.30;;;;;;;-7.18;100.00;103526.84;5016267;28;20295;-77
2023/02/07 04:18:38;;;;;;;25.57;10.83;;;;;;;-7.21;100.00;103521.44;5050642;28;20337;-77
2023/02/07 04:21:06;;;;;;;38.07;11.20;;;;;;;-7.16;100.00;103533.03;5052898;28;20374;-76
2023/02/07 04:23:34;;;;;;;18.97;10.80;;;;;;;-7.46;100.00;103539.59;5048611;28;20334;-76
2023/02/07 04:26:01;;;;;;;26.63;10.83;;;;;;;-7.43;100.00;103531.28;5034275;28;20786;-78
2023/02/07 04:28:27;;;;;;;21.60;10.03;;;;;;;-7.25;100.00;103538.19;5019706;28;20398;-77
2023/02/07 04:30:55;;;;;;;31.27;11.13;;;;;;;-7.19;100.00;103536.22;5038258;28;20299;-78
2023/02/07 04:33:22;;;;;;;26.83;10.63;;;;;;;-7.52;100.00;103536.41;5006745;28;20303;-77
2023/02/07 04:35:59;;;;;;;24.73;9.30;;;;;;;-7.57;100.00;103536.69;5054256;28;20288;-79
2023/02/07 04:38:26;;;;;;;28.50;10.37;;;;;;;-7.30;100.00;103543.66;5008202;28;20294;-77
2023/02/07 04:40:57;;;;;;;22.47;9.97;;;;;;;-7.09;100.00;103536.34;5039910;28;20290;-77
2023/02/07 04:43:24;;;;;;;28.87;10.97;;;;;;;-7.15;100.00;103537.41;5024288;28;20787;-78
2023/02/07 04:45:51;;;;;;;27.50;9.97;;;;;;;-7.26;100.00;103548.31;5021503;28;20295;-78
2023/02/07 04:48:17;;;;;;;23.90;10.60;;;;;;;-7.19;100.00;103543.03;5039320;28;20287;-77
2023/02/07 04:50:44;;;;;;;25.20;11.77;;;;;;;-7.29;100.00;103536.09;5021422;28;20291;-77
2023/02/07 04:53:11;;;;;;;23.90;10.27;;;;;;;-7.25;100.00;103543.31;5044935;28;20287;-78
2023/02/07 04:55:37;;;;;;;19.20;9.20;;;;;;;-7.40;100.00;103536.69;5040339;28;20303;-79
2023/02/07 04:58:05;;;;;;;27.40;9.67;;;;;;;-7.28;100.00;103535.34;5023431;28;20314;-78
2023/02/07 05:00:32;;;;;;;23.40;10.13;;;;;;;-7.28;100.00;103540.47;5015969;28;20309;-78
2023/02/07 05:02:59;;;;;;;23.90;10.70;;;;;;;-7.34;100.00;103528.69;5039816;28;20283;-78
2023/02/07 05:05:26;;;;;;;24.67;9.73;;;;;;;-7.46;100.00;103529.31;5024084;28;20804;-78
2023/02/07 05:07:55;;;;;;;28.73;12.63;;;;;;;-7.46;100.00;103529.31;5018508;28;20366;-78
2023/02/07 05:10:22;;;;;;;19.63;9.47;;;;;;;-7.33;100.00;103533.97;5017881;28;20322;-78
2023/02/07 05:12:48;;;;;;;26.77;11.20;;;;;;;-7.38;100.00;103528.41;5004603;28;20342;-78
2023/02/07 05:15:15;;;;;;;23.40;10.90;;;;;;;-7.45;100.00;103523.41;5035835;28;20440;-78
2023/02/07 05:17:41;;;;;;;23.57;10.40;;;;;;;-7.50;100.00;103528.84;5040548;28;20280;-79
2023/02/07 05:20:09;;;;;;;24.87;12.93;;;;;;;-7.51;100.00;103530.50;5006638;28;20284;-78
2023/02/07 05:22:35;;;;;;;27.90;11.60;;;;;;;-7.35;100.00;103529.44;5020751;28;20700;-79
2023/02/07 05:25:06;;;;;;;25.63;12.70;;;;;;;-7.33;100.00;103533.06;5003246;28;20669;-79
2023/02/07 05:27:33;;;;;;;28.80;11.13;;;;;;;-7.45;100.00;103527.66;5016566;28;20595;-78
2023/02/07 05:30:00;;;;;;;24.77;11.13;;;;;;;-7.40;100.00;103534.13;5020411;28;20306;-78
2023/02/07 05:35:11;;;;;;;23.07;10.57;;;;;;;-7.39;100.00;103531.72;5024853;28;20287;-79
2023/02/07 05:37:38;;;;;;;24.27;10.50;;;;;;;-7.41;100.00;103534.88;5038961;28;20649;-78
2023/02/07 05:40:05;;;;;;;28.17;11.33;;;;;;;-7.44;100.00;103540.63;5014923;28;20334;-79
2023/02/07 05:42:32;;;;;;;28.73;13.30;;;;;;;-7.41;100.00;103532.31;5022166;28;20329;-78
2023/02/07 05:44:59;;;;;;;27.00;10.93;;;;;;;-7.38;100.00;103527.50;5021216;28;20337;-77
2023/02/07 05:47:26;;;;;;;26.03;11.63;;;;;;;-7.32;100.00;103522.94;4988888;28;20288;-78
2023/02/07 05:49:52;;;;;;;22.87;10.93;;;;;;;-7.31;100.00;103523.84;5023045;28;20295;-78
2023/02/07 05:52:19;;;;;;;24.37;11.23;;;;;;;-7.31;100.00;103527.34;5022451;28;20298;-78
2023/02/07 05:54:45;;;;;;;30.77;11.43;;;;;;;-7.31;100.00;103529.91;5027360;28;20303;-78
2023/02/07 05:57:12;;;;;;;21.70;10.27;;;;;;;-7.24;100.00;103526.25;5035401;28;20421;-79
2023/02/07 05:59:39;;;;;;;37.00;12.07;;;;;;;-7.28;100.00;103532.78;5033962;28;20299;-78
2023/02/07 06:02:05;;;;;;;32.73;10.63;;;;;;;-7.26;100.00;103523.53;5020527;28;20286;-78
2023/02/07 06:04:32;;;;;;;25.63;10.17;;;;;;;-7.23;100.00;103531.56;5025722;28;20326;-78
2023/02/07 06:06:59;;;;;;;33.23;11.20;;;;;;;-7.15;100.00;103535.75;5035311;28;20292;-78
2023/02/07 06:09:25;;;;;;;28.73;11.83;;;;;;;-7.24;100.00;103528.81;5003505;28;20291;-78
2023/02/07 06:11:54;;;;;;;23.87;10.77;;;;;;;-7.27;100.00;103528.53;5018997;28;20303;-78
2023/02/07 06:14:21;;;;;;;24.63;10.73;;;;;;;-7.28;100.00;103537.91;5018732;28;20302;-77
2023/02/07 06:16:48;;;;;;;24.00;11.07;;;;;;;-7.25;100.00;103527.00;5019323;28;20284;-78
2023/02/07 06:19:15;;;;;;;25.00;11.03;;;;;;;-7.25;100.00;103529.59;5019504;28;20784;-79
2023/02/07 06:21:42;;;;;;;28.93;10.63;;;;;;;-7.20;100.00;103538.66;5012027;28;20327;-79
2023/02/07 06:24:13;;;;;;;28.30;12.10;;;;;;;-7.19;100.00;103541.38;5000442;28;20292;-79
2023/02/07 06:26:40;;;;;;;26.60;10.93;;;;;;;-7.16;100.00;103541.66;5022734;28;20280;-78
2023/02/07 06:29:07;;;;;;;23.87;10.17;;;;;;;-7.13;100.00;103538.50;5007634;28;20291;-79
2023/02/07 06:31:34;;;;;;;27.80;12.70;;;;;;;-7.18;100.00;103542.28;5017593;28;20295;-79
2023/02/07 06:34:00;;;;;;;28.93;10.77;;;;;;;-7.16;100.00;103535.59;5001068;28;20337;-78
2023/02/07 06:36:27;;;;;;;26.27;10.90;;;;;;;-7.20;100.00;103533.50;5016038;28;20283;-78
2023/02/07 06:38:54;;;;;;;27.03;11.53;;;;;;;-7.22;100.00;103529.91;5000020;28;20374;-79
2023/02/07 06:41:21;;;;;;;24.17;10.67;;;;;;;-7.21;100.00;103529.13;5032381;28;20345;-80
2023/02/07 06:43:48;;;;;;;27.10;11.93;;;;;;;-7.13;100.00;103534.25;4996640;28;20299;-79
2023/02/07 06:46:15;;;;;;;22.07;10.17;;;;;;;-7.08;100.00;103529.53;4991331;28;20301;-80
2023/02/07 06:48:42;;;;;;;24.50;10.43;;;;;;;-7.18;100.00;103527.75;5021555;28;20283;-79
2023/02/07 06:51:09;;;;;;;28.80;11.67;;;;;;;-7.20;100.00;103533.50;5028579;28;20298;-79
2023/02/07 06:53:35;;;;;;;20.40;8.50;;;;;;;-7.23;100.00;103529.00;4999540;28;20803;-79
2023/02/07 06:56:02;;;;;;;23.47;9.13;;;;;;;-7.20;100.00;103529.28;4997855;28;20298;-78
2023/02/07 06:58:29;;;;;;;19.97;9.97;;;;;;;-7.22;100.00;103524.75;5045210;28;20291;-79
2023/02/07 07:00:55;;;;;;;19.33;10.03;;;;;;;-7.24;100.00;103524.59;5016733;28;20819;-79
2023/02/07 07:03:25;;;;;;;20.33;9.73;;;;;;;-7.21;100.00;103524.00;4996895;28;20292;-79
2023/02/07 07:05:52;;;;;;;20.50;10.53;;;;;;;-7.19;100.00;103515.69;4990285;28;20315;-79
2023/02/07 07:08:19;;;;;;;19.73;9.30;;;;;;;-7.21;100.00;103511.16;5017000;28;20283;-79
2023/02/07 07:10:45;;;;;;;21.87;10.17;;;;;;;-7.20;100.00;103518.09;4997137;28;20669;-79
2023/02/07 07:13:12;;;;;;;23.10;9.30;;;;;;;-7.06;100.00;103522.91;5014148;28;20836;-79
2023/02/07 07:15:39;;;;;;;18.70;9.57;;;;;;;-7.10;100.00;103521.69;5021765;28;20292;-79
2023/02/07 07:18:06;;;;;;;19.93;9.87;;;;;;;-7.06;100.00;103522.91;5029443;28;20329;-79
2023/02/07 07:20:33;;;;;;;18.80;8.77;;;;;;;-7.10;100.00;103533.63;5016620;28;20279;-79
2023/02/07 07:22:59;;;;;;;21.87;9.10;;;;;;;-7.07;100.00;103535.59;5017200;28;20296;-79
2023/02/07 07:25:26;;;;;;;21.03;10.20;;;;;;;-7.07;100.00;103533.94;5016660;28;20306;-79
2023/02/07 07:27:52;;;;;;;21.80;10.27;;;;;;;-7.04;100.00;103526.53;5016739;28;20318;-79
2023/02/07 07:30:20;;;;;;;20.77;10.10;;;;;;;-7.03;100.00;103530.00;5032873;28;20291;-80
2023/02/07 07:32:47;;;;;;;22.60;9.63;;;;;;;-7.01;100.00;103531.94;5005686;28;20288;-80
2023/02/07 07:35:13;;;;;;;21.80;9.33;;;;;;;-6.98;100.00;103527.09;5013279;28;20288;-78
2023/02/07 07:37:40;;;;;;;19.43;9.83;;;;;;;-7.00;100.00;103522.59;4996606;28;20295;-79
2023/02/07 07:40:08;;;;;;;20.30;9.17;;;;;;;-7.05;100.00;103529.88;5046156;28;20903;-79
2023/02/07 07:42:35;;;;;;;19.10;9.73;;;;;;;-7.04;100.00;103539.38;5001121;28;20299;-79
2023/02/07 07:45:03;;;;;;;25.97;9.50;;;;;;;-7.06;100.00;103550.25;5010067;28;20303;-80
2023/02/07 08:09:30;;;;;;;20.07;8.93;;;;;;;-6.91;100.00;103542.34;5048096;28;20310;-81
2023/02/07 08:13:20;;;;;;;21.97;10.00;;;;;;;-6.78;100.00;103544.44;5007642;28;20372;-82
2023/02/07 09:11:54;;;;;;;29.23;13.93;;;;;;;-4.92;100.00;103583.91;5013519;28;20040;-82
2023/02/07 09:14:21;;;;;;;24.00;12.43;;;;;;;-4.82;100.00;103576.22;5002832;28;20133;-82
2023/02/07 09:16:48;;;;;;;25.23;13.20;;;;;;;-4.69;100.00;103575.63;4973587;28;20125;-81
2023/02/07 09:19:15;;;;;;;28.57;13.07;;;;;;;-4.61;100.00;103574.63;4987965;28;20046;-82
2023/02/07 09:21:41;;;;;;;25.83;13.03;;;;;;;-4.46;100.00;103577.63;5002838;28;20037;-81
2023/02/07 09:24:08;;;;;;;31.20;14.57;;;;;;;-4.31;100.00;103584.13;4995174;28;20038;-81
2023/02/07 09:26:35;;;;;;;28.10;15.50;;;;;;;-4.12;100.00;103584.00;4967568;28;20042;-80
2023/02/07 09:29:01;;;;;;;25.80;13.27;;;;;;;-3.93;100.00;103582.25;4965601;28;20042;-82
2023/02/07 09:31:28;;;;;;;27.60;14.20;;;;;;;-3.72;100.00;103589.22;4982704;28;20034;-80
2023/02/07 09:33:55;;;;;;;30.90;14.33;;;;;;;-3.53;100.00;103581.34;4999016;28;20162;-81
2023/02/07 09:36:24;;;;;;;32.17;16.80;;;;;;;-3.40;100.00;103589.31;4967774;28;20410;-81
2023/02/07 09:38:51;;;;;;;31.43;14.93;;;;;;;-3.25;100.00;103581.03;4965272;28;20050;-82
2023/02/07 09:41:23;;;;;;;31.07;16.27;;;;;;;-3.17;100.00;103582.56;4967428;28;20042;-82
2023/02/07 09:44:11;;;;;;;33.43;17.90;;;;;;;-3.08;100.00;103574.66;4982855;28;20046;-82
2023/02/07 09:46:46;;;;;;;30.33;15.47;;;;;;;-2.98;100.00;103578.09;5015984;28;20081;-82
2023/02/07 09:49:30;;;;;;;25.10;13.70;;;;;;;-2.86;100.00;103573.00;4978078;28;20042;-81
2023/02/07 09:51:57;;;;;;;31.57;15.03;;;;;;;-2.74;100.00;103575.69;4963694;28;20042;-81
2023/02/07 09:54:28;;;;;;;23.47;12.93;;;;;;;-2.72;100.00;103575.03;4945606;28;20502;-81
2023/02/07 09:56:58;;;;;;;24.00;13.57;;;;;;;-2.34;100.00;103567.72;4980662;28;20066;-81
2023/02/07 09:59:48;;;;;;;24.77;13.10;;;;;;;-2.45;100.00;103563.38;4976567;28;20497;-80
2023/02/07 10:02:21;;;;;;;26.07;11.90;;;;;;;-2.35;100.00;103570.19;4986099;28;20038;-81
2023/02/07 10:04:49;;;;;;;28.23;14.52;;;;;;;-2.49;100.00;103571.69;4971960;28;20042;-81
2023/02/07 10:07:16;;;;;;;27.67;14.30;;;;;;;-2.45;100.00;103567.66;4970416;28;20046;-81
2023/02/07 10:09:44;;;;;;;24.80;13.47;;;;;;;-2.31;100.00;103572.22;4997941;28;20038;-82
2023/02/07 10:12:25;;;;;;;27.10;13.57;;;;;;;-2.33;100.00;103584.16;4973711;28;20058;-84
2023/02/07 10:15:09;;;;;;;23.90;13.67;;;;;;;-2.17;100.00;103575.91;4999518;28;20064;-82
2023/02/07 10:18:00;;;;;;;22.00;12.00;;;;;;;-2.06;100.00;103575.94;4971252;28;20113;-83
2023/02/07 10:20:40;;;;;;;27.67;13.23;;;;;;;-2.05;100.00;103579.44;4983066;28;20121;-83
2023/02/07 10:23:47;;;;;;;21.47;12.67;;;;;;;-1.91;100.00;103591.78;4991097;28;20042;-82
2023/02/07 10:26:45;;;;;;;26.23;13.97;;;;;;;-1.72;100.00;103586.31;5007133;28;20068;-84
2023/02/07 10:29:24;;;;;;;22.53;13.00;;;;;;;-1.53;100.00;103586.91;4990527;28;20042;-83
2023/02/07 10:31:53;;;;;;;25.63;13.13;;;;;;;-1.19;100.00;103582.53;5006084;28;20037;-82
2023/02/07 10:34:22;;;;;;;22.33;11.67;;;;;;;-0.96;100.00;103584.25;4995973;28;20073;-81
2023/02/07 10:36:52;;;;;;;19.60;11.70;;;;;;;-0.77;100.00;103580.38;4967542;28;20062;-85
2023/02/07 10:39:26;;;;;;;22.50;12.87;;;;;;;-0.62;100.00;103577.19;4983205;28;20042;-84
2023/02/07 10:41:56;;;;;;;21.85;12.02;;;;;;;-0.30;100.00;103570.81;5000083;28;20133;-83
2023/02/07 10:44:23;;;;;;;22.87;11.87;;;;;;;-0.16;100.00;103575.28;4986961;28;20038;-83
2023/02/07 10:47:01;;;;;;;23.93;12.57;;;;;;;0.12;100.00;103575.47;4965286;28;20045;-83
2023/02/07 10:49:31;;;;;;;17.67;10.93;;;;;;;0.31;100.00;103577.63;4971109;28;20038;-83
2023/02/07 10:52:02;;;;;;;17.80;10.17;;;;;;;0.59;100.00;103575.22;5013511;28;20480;-82
2023/02/07 10:54:28;;;;;;;23.93;12.57;;;;;;;0.85;100.00;103574.34;4998348;28;20042;-82
2023/02/07 10:56:58;;;;;;;23.47;12.70;;;;;;;1.06;100.00;103583.53;4964097;28;20049;-82
2023/02/07 10:59:44;;;;;;;22.83;12.20;;;;;;;1.25;100.00;103583.00;5009954;23;20386;-84
2023/02/07 11:02:30;;;;;;;20.27;11.23;;;;;;;1.27;100.00;103577.91;4975932;23;20046;-81
2023/02/07 11:05:16;;;;;;;19.27;11.33;;;;;;;1.53;97.53;103569.16;4978869;28;20133;-80
2023/02/07 11:08:05;;;;;;;17.73;10.37;;;;;;;1.37;97.35;103582.91;4971584;28;20054;-79
2023/02/07 11:10:37;;;;;;;20.00;10.70;;;;;;;1.53;99.42;103572.66;4974367;28;20053;-80
2023/02/07 11:13:12;;;;;;;20.53;10.93;;;;;;;1.74;94.33;103570.47;4963016;28;20037;-83
2023/02/07 11:15:49;;;;;;;18.70;9.67;;;;;;;1.85;88.42;103561.63;4965579;28;20042;-80
2023/02/07 11:18:38;;;;;;;14.37;9.63;;;;;;;2.00;84.64;103556.44;4979823;28;20038;-82
2023/02/07 11:21:07;;;;;;;18.70;10.10;;;;;;;1.69;86.38;103559.78;4973320;28;20053;-80
2023/02/07 11:23:33;;;;;;;15.33;9.87;;;;;;;1.96;89.47;103550.16;4980454;28;20659;-81
2023/02/07 11:26:02;;;;;;;16.60;10.37;;;;;;;2.09;87.76;103546.56;4993625;28;20045;-81
2023/02/07 11:28:30;;;;;;;17.87;10.27;;;;;;;2.14;86.80;103545.13;4972239;28;20048;-80
2023/02/07 11:31:01;;;;;;;19.07;10.63;;;;;;;2.26;85.67;103535.41;4978773;28;20100;-80
2023/02/07 11:33:31;;;;;;;78.03;52.77;;;;;;;2.26;80.50;103524.09;4983132;28;20038;-81
2023/02/07 11:36:17;;;;;;;19.33;11.90;;;;;;;2.35;79.27;103532.47;4979478;28;20052;-82
2023/02/07 11:38:51;;;;;;;15.10;9.80;;;;;;;2.43;79.22;103518.16;4995578;28;20053;-80
2023/02/07 11:41:24;;;;;;;15.77;9.20;;;;;;;2.41;81.70;103526.72;4965529;28;20050;-81
2023/02/07 11:43:57;;;;;;;17.07;9.43;;;;;;;2.47;82.12;103520.16;4984325;28;20048;-81
2023/02/07 11:46:35;;;;;;;17.10;8.77;;;;;;;2.36;77.69;103509.91;4992312;28;20046;-81
2023/02/07 11:49:06;;;;;;;15.07;10.20;;;;;;;2.60;77.27;103495.63;4993510;28;20117;-81
2023/02/07 11:51:34;;;;;;;12.77;8.10;;;;;;;2.63;74.98;103495.84;4967311;28;20052;-82
2023/02/07 11:54:03;;;;;;;15.20;8.83;;;;;;;2.53;77.90;103497.03;4997725;28;20034;-81
2023/02/07 11:56:38;;;;;;;16.90;9.30;;;;;;;2.53;80.42;103494.41;4983611;28;20410;-81
2023/02/07 11:59:17;;;;;;;12.57;8.27;;;;;;;2.69;73.76;103495.28;4995596;28;20657;-80
2023/02/07 12:01:48;;;;;;;16.30;9.10;;;;;;;2.64;75.00;103497.63;4967866;28;20064;-79
2023/02/07 12:04:19;;;;;;;16.40;8.80;;;;;;;2.65;73.64;103499.44;4974595;28;20065;-80
2023/02/07 12:06:54;;;;;;;13.57;7.97;;;;;;;2.56;73.00;103505.84;4947833;28;20045;-80
2023/02/07 12:09:23;;;;;;;16.17;11.07;;;;;;;2.71;73.13;103501.50;4955377;28;20053;-80
2023/02/07 12:11:51;;;;;;;17.20;10.57;;;;;;;2.73;74.27;103513.81;4979683;28;20054;-80
2023/02/07 12:14:28;;;;;;;15.07;8.50;;;;;;;2.78;74.12;103507.16;4979170;28;20038;-81
2023/02/07 12:16:57;;;;;;;13.30;9.30;;;;;;;2.80;74.30;103504.63;4991106;28;20042;-80
2023/02/07 12:19:32;;;;;;;14.40;8.87;;;;;;;2.71;71.95;103499.78;4973624;28;20052;-81
2023/02/07 12:22:07;;;;;;;15.37;9.03;;;;;;;2.60;66.34;103506.09;4972910;28;20041;-80
2023/02/07 12:24:47;;;;;;;15.60;9.50;;;;;;;2.57;70.25;103498.09;4978723;28;20055;-81
2023/02/07 12:27:15;;;;;;;14.33;8.97;;;;;;;2.61;70.43;103500.09;4989326;28;20068;-79
2023/02/07 12:29:48;;;;;;;15.10;9.00;;;;;;;2.74;70.75;103492.13;4962905;28;20058;-82
2023/02/07 12:32:32;;;;;;;28.13;19.70;;;;;;;2.76;73.57;103494.81;4979175;28;20047;-80
2023/02/07 12:35:30;;;;;;;45.83;37.95;;;;;;;2.60;70.82;103492.13;4996231;28;20042;-80
2023/02/07 12:38:24;;;;;;;20.77;14.53;;;;;;;2.75;71.48;103485.19;4986756;28;20113;-81
2023/02/07 12:40:58;;;;;;;15.40;11.90;;;;;;;2.74;73.32;103499.94;4977399;28;20042;-80
2023/02/07 12:43:27;;;;;;;14.30;10.60;;;;;;;2.70;71.40;103490.16;4969156;28;20506;-79
2023/02/07 12:46:02;;;;;;;15.87;9.90;;;;;;;2.63;68.51;103477.56;4953275;28;20054;-80
2023/02/07 12:49:06;;;;;;;13.93;10.07;;;;;;;2.53;68.14;103473.53;5001039;28;20038;-80